Time,TemperatureF,DewpointF,PressureIn,WindDirection,WindDirectionDegrees,WindSpeedMPH,WindSpeedGustMPH,Humidity,HourlyPrecipIn,Conditions,Clouds,dailyrainin,SoftwareType,DateUTC
2013-12-05 00:00:00,37.0,-99.9,30.17,North,356,9.0,11.0,-999,-99.99,,,-99.99,,2013-12-05 05:00:00,
2013-12-05 00:53:00,37.0,-99.9,30.17,North,356,9.0,11.0,-999,-99.99,,,-99.99,,2013-12-05 05:53:00,
2013-12-05 01:00:00,37.0,-99.9,30.19,North,358,8.0,11.0,-999,-99.99,,,-99.99,,2013-12-05 06:00:00,
2013-12-05 01:52:00,37.0,-99.9,30.19,North,358,8.0,11.0,-999,-99.99,,,-99.99,,2013-12-05 06:52:00,
2013-12-05 02:00:00,37.0,-99.9,30.20,NNE,23,11.0,13.0,-999,-99.99,,,-99.99,,2013-12-05 07:00:00,
2013-12-05 02:52:00,37.0,-99.9,30.20,NNE,23,11.0,13.0,-999,-99.99,,,-99.99,,2013-12-05 07:52:00,
2013-12-05 03:00:00,37.0,-99.9,30.22,NNE,22,9.0,11.0,-999,-99.99,,,-99.99,,2013-12-05 08:00:00,
2013-12-05 03:53:00,37.0,-99.9,30.22,NNE,22,9.0,11.0,-999,-99.99,,,-99.99,,2013-12-05 08:53:00,
2013-12-05 04:00:00,37.0,-99.9,30.22,NE,40,11.0,14.0,-999,-99.99,,,-99.99,,2013-12-05 09:00:00,
2013-12-05 04:54:00,37.0,-99.9,30.22,NE,40,11.0,14.0,-999,-99.99,,,-99.99,,2013-12-05 09:54:00,
2013-12-05 05:00:00,37.0,-99.9,30.24,NE,48,6.0,10.0,-999,-99.99,,,-99.99,,2013-12-05 10:00:00,
2013-12-05 05:53:00,37.0,-99.9,30.24,NE,48,6.0,10.0,-999,-99.99,,,-99.99,,2013-12-05 10:53:00,
2013-12-05 06:00:00,37.0,-99.9,30.24,NE,55,8.0,9.0,-999,-99.99,,,-99.99,,2013-12-05 11:00:00,
2013-12-05 06:53:00,37.0,-99.9,30.24,NE,55,8.0,9.0,-999,-99.99,,,-99.99,,2013-12-05 11:53:00,
2013-12-05 07:52:00,38.0,-99.9,30.23,East,87,10.0,13.0,-999,-99.99,,,-99.99,,2013-12-05 12:52:00,
2013-12-05 08:00:00,40.0,-99.9,30.24,ESE,102,9.0,12.0,-999,-99.99,,,-99.99,,2013-12-05 13:00:00,
2013-12-05 08:52:00,40.0,-99.9,30.24,ESE,102,9.0,12.0,-999,-99.99,,,-99.99,,2013-12-05 13:52:00,
2013-12-05 09:00:00,40.0,-99.9,30.25,SE,125,9.0,13.0,-999,-99.99,,,-99.99,,2013-12-05 14:00:00,
2013-12-05 09:52:00,40.0,-99.9,30.25,SE,125,9.0,13.0,-999,-99.99,,,-99.99,,2013-12-05 14:52:00,
2013-12-05 10:00:00,42.0,-99.9,30.23,SE,144,13.0,15.0,-999,-99.99,,,-99.99,,2013-12-05 15:00:00,
2013-12-05 10:54:00,42.0,-99.9,30.23,SE,144,13.0,15.0,-999,-99.99,,,-99.99,,2013-12-05 15:54:00,
2013-12-05 11:00:00,43.0,-99.9,30.19,SSE,157,14.0,16.0,-999,-99.99,,,-99.99,,2013-12-05 16:00:00,
2013-12-05 11:53:00,43.0,-99.9,30.19,SSE,157,14.0,16.0,-999,-99.99,,,-99.99,,2013-12-05 16:53:00,
2013-12-05 12:00:00,44.0,-99.9,30.16,SSE,156,15.0,17.0,-999,-99.99,,,-99.99,,2013-12-05 17:00:00,
2013-12-05 12:52:00,44.0,-99.9,30.16,SSE,156,15.0,17.0,-999,-99.99,,,-99.99,,2013-12-05 17:52:00,
2013-12-05 13:00:00,45.0,-99.9,30.15,SSE,164,16.0,18.0,-999,-99.99,,,-99.99,,2013-12-05 18:00:00,
2013-12-05 13:52:00,45.0,-99.9,30.15,SSE,164,16.0,18.0,-999,-99.99,,,-99.99,,2013-12-05 18:52:00,
2013-12-05 14:00:00,46.0,-99.9,30.12,SSE,154,15.0,18.0,-999,-99.99,,,-99.99,,2013-12-05 19:00:00,
2013-12-05 14:52:00,46.0,-99.9,30.12,SSE,154,15.0,18.0,-999,-99.99,,,-99.99,,2013-12-05 19:52:00,
2013-12-05 15:30:00,47.0,-99.9,30.10,SSE,153,19.0,23.0,-999,-99.99,,,-99.99,,2013-12-05 20:30:00,
2013-12-05 15:52:00,46.0,-99.9,30.10,SSE,154,17.0,20.0,-999,-99.99,,,-99.99,,2013-12-05 20:52:00,
2013-12-05 16:12:00,47.0,-99.9,30.10,SSE,153,19.0,23.0,-999,-99.99,,,-99.99,,2013-12-05 21:12:00,
2013-12-05 16:22:00,47.0,-99.9,30.10,SSE,153,19.0,23.0,-999,-99.99,,,-99.99,,2013-12-05 21:22:00,
2013-12-05 16:30:00,47.0,-99.9,30.06,SSE,150,20.0,24.0,-999,-99.99,,,-99.99,,2013-12-05 21:30:00,
2013-12-05 16:53:00,47.0,-99.9,30.08,SSE,152,20.0,25.0,-999,-99.99,,,-99.99,,2013-12-05 21:53:00,
2013-12-05 17:00:00,47.0,-99.9,30.05,SSE,152,21.0,26.0,-999,-99.99,,,-99.99,,2013-12-05 22:00:00,
2013-12-05 17:13:00,47.0,-99.9,30.06,SSE,150,20.0,24.0,-999,-99.99,,,-99.99,,2013-12-05 22:13:00,
2013-12-05 17:24:00,47.0,-99.9,30.06,SSE,150,20.0,24.0,-999,-99.99,,,-99.99,,2013-12-05 22:24:00,
2013-12-05 17:52:00,47.0,-99.9,30.05,SSE,152,21.0,26.0,-999,-99.99,,,-99.99,,2013-12-05 22:52:00,
2013-12-05 18:30:00,47.0,-99.9,30.06,South,170,20.0,24.0,-999,-99.99,,,-99.99,,2013-12-05 23:30:00,
2013-12-05 18:53:00,47.0,-99.9,30.06,SSE,165,19.0,23.0,-999,-99.99,,,-99.99,,2013-12-05 23:53:00,
2013-12-05 19:00:00,47.0,-99.9,30.05,SSE,163,17.0,22.0,-999,-99.99,,,-99.99,,2013-12-06 00:00:00,
2013-12-05 19:11:00,47.0,-99.9,30.06,South,170,20.0,24.0,-999,-99.99,,,-99.99,,2013-12-06 00:11:00,
2013-12-05 19:22:00,47.0,-99.9,30.06,South,170,20.0,24.0,-999,-99.99,,,-99.99,,2013-12-06 00:22:00,
2013-12-05 19:52:00,47.0,-99.9,30.05,SSE,163,17.0,22.0,-999,-99.99,,,-99.99,,2013-12-06 00:52:00,
2013-12-05 20:30:00,48.0,-99.9,29.99,SSE,164,19.0,22.0,-999,-99.99,,,-99.99,,2013-12-06 01:30:00,
2013-12-05 20:52:00,48.0,-99.9,30.00,SSE,157,21.0,24.0,-999,-99.99,,,-99.99,,2013-12-06 01:52:00,
2013-12-05 21:11:00,48.0,-99.9,29.99,SSE,164,19.0,22.0,-999,-99.99,,,-99.99,,2013-12-06 02:11:00,
2013-12-05 21:22:00,48.0,-99.9,29.99,SSE,164,19.0,22.0,-999,-99.99,,,-99.99,,2013-12-06 02:22:00,
2013-12-05 21:30:00,49.0,-99.9,29.96,South,181,21.0,26.0,-999,-99.99,,,-99.99,,2013-12-06 02:30:00,
2013-12-05 21:52:00,48.0,-99.9,29.97,SSE,166,19.0,25.0,-999,-99.99,,,-99.99,,2013-12-06 02:52:00,
2013-12-05 22:12:00,49.0,-99.9,29.96,South,181,21.0,26.0,-999,-99.99,,,-99.99,,2013-12-06 03:12:00,
2013-12-05 22:22:00,49.0,-99.9,29.96,South,181,21.0,26.0,-999,-99.99,,,-99.99,,2013-12-06 03:22:00,
2013-12-05 22:30:00,49.0,-99.9,29.91,South,181,21.0,24.0,-999,-99.99,,,-99.99,,2013-12-06 03:30:00,
2013-12-05 22:53:00,49.0,-99.9,29.94,South,181,20.0,24.0,-999,-99.99,,,-99.99,,2013-12-06 03:53:00,
2013-12-05 23:13:00,49.0,-99.9,29.91,South,181,21.0,24.0,-999,-99.99,,,-99.99,,2013-12-06 04:13:00,
2013-12-05 23:23:00,49.0,-99.9,29.91,South,181,21.0,24.0,-999,-99.99,,,-99.99,,2013-12-06 04:23:00,
2013-12-05 23:30:00,49.0,-99.9,29.90,SSW,193,20.0,24.0,-999,-99.99,,,-99.99,,2013-12-06 04:30:00,
2013-12-05 23:53:00,49.0,-99.9,29.91,South,188,21.0,24.0,-999,-99.99,,,-99.99,,2013-12-06 04:53:00,